createdAt,value
2022-09-21T04:56:30.975Z,10.70
2022-09-21T05:01:35.850Z,10.60
2022-09-21T05:06:37.811Z,10.50
2022-09-21T05:11:40.009Z,10.50
2022-09-21T05:16:49.799Z,10.40
2022-09-21T05:22:24.900Z,10.30
2022-09-21T05:27:27.007Z,10.30
2022-09-21T05:32:45.240Z,10.30
2022-09-21T05:38:00.742Z,10.20
2022-09-21T05:43:02.830Z,10.20
2022-09-21T05:48:20.841Z,10.20
2022-09-21T05:53:39.092Z,10.20
2022-09-21T05:58:46.605Z,10.30
2022-09-21T06:03:50.261Z,10.30
2022-09-21T06:08:52.386Z,10.30
2022-09-21T06:13:54.781Z,10.20
2022-09-21T06:18:57.194Z,10.30
2022-09-21T06:23:59.068Z,10.30
2022-09-21T06:29:00.879Z,10.30
2022-09-21T06:34:02.737Z,10.30
2022-09-21T06:39:04.594Z,10.40
2022-09-21T06:44:06.499Z,10.40
2022-09-21T06:49:08.370Z,10.50
2022-09-21T06:54:10.387Z,10.50
2022-09-21T06:59:12.418Z,10.50
2022-09-21T07:04:14.283Z,10.60
2022-09-21T07:14:38.035Z,10.60
2022-09-21T07:19:39.856Z,10.70
2022-09-21T07:24:41.655Z,10.80
2022-09-21T07:29:43.585Z,10.80
2022-09-21T07:34:46.630Z,10.90
2022-09-21T07:39:48.459Z,11.00
2022-09-21T07:44:51.222Z,11.10
2022-09-21T07:49:54.028Z,11.10
2022-09-21T07:54:55.880Z,11.20
2022-09-21T07:59:58.195Z,11.30
2022-09-21T08:04:59.998Z,11.40
2022-09-21T08:10:01.769Z,11.50
2022-09-21T08:15:03.941Z,11.60
2022-09-21T08:20:07.843Z,11.80
2022-09-21T08:25:11.103Z,12.00
2022-09-21T08:30:13.789Z,12.10
2022-09-21T08:35:15.610Z,12.20
2022-09-21T08:40:18.071Z,12.30
2022-09-21T08:45:21.580Z,12.40
2022-09-21T08:50:34.141Z,12.50
2022-09-21T08:55:36.002Z,12.50
2022-09-21T09:00:40.109Z,12.60
2022-09-21T09:06:02.093Z,12.60
2022-09-21T09:11:10.132Z,12.70
2022-09-21T09:16:56.731Z,12.80
2022-09-21T09:21:58.557Z,13.00
2022-09-21T09:27:01.738Z,13.10
2022-09-21T09:32:04.757Z,13.20
2022-09-21T09:37:15.242Z,13.30
2022-09-21T09:42:44.021Z,13.60
2022-09-21T09:48:02.689Z,13.80
2022-09-21T09:53:25.654Z,13.90
2022-09-21T09:58:44.829Z,14.10
2022-09-21T10:04:05.438Z,14.40
2022-09-21T10:09:26.227Z,14.70
2022-09-21T10:14:33.221Z,15.10
2022-09-21T10:20:08.378Z,15.40
2022-09-21T10:25:16.502Z,15.70
2022-09-21T10:30:30.535Z,15.90
2022-09-21T10:35:32.516Z,16.00
2022-09-21T10:40:37.647Z,16.20
2022-09-21T10:45:56.119Z,16.30
2022-09-21T10:50:58.214Z,16.30
2022-09-21T10:56:19.129Z,16.20
2022-09-21T11:02:03.833Z,16.00
2022-09-21T11:08:04.442Z,15.90
2022-09-21T11:14:30.481Z,16.10
2022-09-21T11:26:13.478Z,17.10
2022-09-21T11:32:05.301Z,17.70
2022-09-21T11:37:21.410Z,18.10
2022-09-21T11:42:41.519Z,18.60
2022-09-21T11:48:18.826Z,19.10
2022-09-21T11:53:58.341Z,19.30
2022-09-21T11:59:23.909Z,19.60
2022-09-21T12:04:38.342Z,19.80
2022-09-21T12:10:00.933Z,19.90
2022-09-21T12:15:09.887Z,19.70
2022-09-21T12:20:30.797Z,19.70
2022-09-21T12:25:39.748Z,19.70
2022-09-21T12:30:44.209Z,19.80
2022-09-21T12:35:54.475Z,20.00
2022-09-21T12:41:27.180Z,20.30
2022-09-21T12:46:32.062Z,20.40
2022-09-21T12:51:44.688Z,20.30
2022-09-21T12:56:53.629Z,20.60
2022-09-21T13:02:33.532Z,20.90
2022-09-21T13:07:38.610Z,21.10
2022-09-21T13:12:44.266Z,21.50
2022-09-21T13:17:46.125Z,21.60
2022-09-21T13:22:49.015Z,21.90
2022-09-21T13:28:09.127Z,21.70
2022-09-21T13:33:19.830Z,21.60
2022-09-21T13:38:39.797Z,21.50
2022-09-21T13:43:47.145Z,21.50
2022-09-21T13:48:53.188Z,21.30
2022-09-21T13:53:56.676Z,20.90
2022-09-21T13:58:58.794Z,20.50
2022-09-21T14:04:25.948Z,20.40
2022-09-21T14:09:44.438Z,20.50
2022-09-21T14:15:12.770Z,20.60
2022-09-21T14:20:38.556Z,20.80
2022-09-21T14:25:56.835Z,20.80
2022-09-21T14:31:08.386Z,20.80
2022-09-21T14:36:15.361Z,20.70
2022-09-21T14:41:20.339Z,20.70
2022-09-21T14:46:36.155Z,20.50
2022-09-21T14:52:22.466Z,20.40
2022-09-21T14:57:56.309Z,20.20
2022-09-21T15:03:05.053Z,19.90
2022-09-21T15:08:51.730Z,19.80
2022-09-21T15:14:21.338Z,19.60
2022-09-21T15:19:28.250Z,19.30
2022-09-21T15:24:32.983Z,19.10
2022-09-21T15:29:34.901Z,19.00
2022-09-21T15:34:37.648Z,18.90
2022-09-21T15:39:41.337Z,18.80
2022-09-21T15:44:48.764Z,18.80
2022-09-21T15:49:53.145Z,18.80
2022-09-21T15:55:02.922Z,18.70
2022-09-21T16:00:08.165Z,18.50
2022-09-21T16:05:14.497Z,18.30
2022-09-21T16:10:37.513Z,18.20
2022-09-21T16:15:39.495Z,18.00
2022-09-21T16:20:45.712Z,17.80
2022-09-21T16:25:54.918Z,17.60
2022-09-21T16:30:57.537Z,17.50
2022-09-21T16:36:04.047Z,17.40
2022-09-21T16:41:07.606Z,17.30
2022-09-21T16:46:10.367Z,17.20
2022-09-21T16:51:14.170Z,17.00
2022-09-21T16:56:16.463Z,16.90
2022-09-21T17:01:22.206Z,16.80
2022-09-21T17:06:24.148Z,16.70
2022-09-21T17:11:26.021Z,16.60
2022-09-21T17:16:27.982Z,16.50
2022-09-21T17:21:31.305Z,16.40
2022-09-21T17:26:34.107Z,16.30
2022-09-21T17:31:38.608Z,16.20
2022-09-21T17:36:40.637Z,16.10
2022-09-21T17:41:51.442Z,16.10
2022-09-21T17:47:00.167Z,16.00
2022-09-21T17:52:21.085Z,15.90
2022-09-21T17:57:36.199Z,15.80
2022-09-21T18:02:38.205Z,15.80
2022-09-21T18:07:41.854Z,15.80
2022-09-21T18:12:54.097Z,15.70
2022-09-21T18:17:59.333Z,15.70
2022-09-21T18:23:30.978Z,15.60
